Last 6 Hours

Alpine-Roundhouse Top 7880'

15 Minute Data | America/Los_Angeles
as of 5/30/20 8:00 PM PDT
Date & Time Temp (°F) RH (%) Dew Pt (°F) Wet Bulb (°F) Wind Dir (°) Wind Spd (mph) Wind Gust (mph) WindChill (°F)
5/30/20 - 1945 37.8 92 35.7 36.7 NE | 51 4.1 13.4 35.1
5/30/20 - 1930 37.7 91 35.2 36.5 NW | 322 2.9 15.8 36.3
5/30/20 - 1915 37.8 90 35.1 36.5 N | 1 3.9 11.0 35.5
5/30/20 - 1900 37.8 90 35.2 36.5 N | 354 3.6 17.2 36.0
5/30/20 - 1845 38.0 89 34.9 36.5 NNE | 16 4.6 15.8 35.4
5/30/20 - 1830 38.6 87 35.2 36.9 NNE | 12 3.2 11.1 36.7
5/30/20 - 1815 38.3 90 35.5 36.9 NNE | 13 4.8 11.8 35.3
5/30/20 - 1800 38.6 90 35.8 37.2 ENE | 73 5.8 16.7 35.0
5/30/20 - 1745 38.8 90 36.2 37.4 ENE | 58 4.6 12.5 36.1
5/30/20 - 1730 38.8 92 36.6 37.7 N | 354 3.4 13.4 36.9
5/30/20 - 1715 38.5 92 36.5 37.5 NNE | 16 3.0 10.6 36.7
5/30/20 - 1700 38.3 91 35.9 37.1 ENE | 61 4.6 12.0 35.4
5/30/20 - 1645 38.6 91 36.3 37.4 NE | 40 4.8 16.4 35.7
5/30/20 - 1630 38.8 91 36.5 37.7 E | 87 4.8 10.3 35.5
5/30/20 - 1615 39.1 90 36.4 37.7 NNE | 13 1.5 6.8 38.3
5/30/20 - 1600 38.6 89 35.8 37.2 ESE | 111 5.2 11.8 35.3
5/30/20 - 1545 39.0 89 36.0 37.5 E | 89 5.3 14.9 36.0
5/30/20 - 1530 39.8 88 36.6 38.1 ENE | 72 5.6 14.3 36.9
5/30/20 - 1515 40.3 87 36.8 38.5 E | 81 7.4 15.9 36.3
5/30/20 - 1500 40.5 87 37.0 38.7 E | 93 5.8 13.3 36.3
5/30/20 - 1445 39.6 87 36.0 37.7 E | 89 6.5 17.2 36.2
5/30/20 - 1430 40.8 87 37.3 39.0 ENE | 59 4.9 15.7 38.3
5/30/20 - 1415 40.6 87 37.0 38.8 NE | 53 3.5 12.5 38.6
Max 40.8 92 37.3 39.0 - 7.4 17.2 38.6
Avg 38.9 89 36.1 37.5 - 4.5 13.5 36.3
Min 37.7 87 34.9 36.5 - 1.5 6.8 35.0